createdAt,value
2023-05-09T00:02:54.744Z,100740.88
2023-05-09T00:05:56.185Z,100742.78
2023-05-09T00:08:57.707Z,100738.72
2023-05-09T00:11:59.088Z,100733.31
2023-05-09T00:15:00.472Z,100735.28
2023-05-09T00:18:01.966Z,100732.59
2023-05-09T00:21:04.232Z,100736.22
2023-05-09T00:24:06.093Z,100729.25
2023-05-09T00:27:07.490Z,100717.03
2023-05-09T00:30:09.105Z,100723.53
2023-05-09T00:33:10.778Z,100723.00
2023-05-09T00:36:12.321Z,100724.88
2023-05-09T00:39:13.696Z,100732.00
2023-05-09T00:42:15.145Z,100725.75
2023-05-09T00:45:16.571Z,100711.81
2023-05-09T00:48:18.131Z,100714.19
2023-05-09T00:51:20.506Z,100717.09
2023-05-09T00:54:22.023Z,100710.97
2023-05-09T00:57:23.524Z,100710.91
2023-05-09T01:00:25.340Z,100718.34
2023-05-09T01:03:27.366Z,100706.22
2023-05-09T01:06:52.412Z,100710.13
2023-05-09T01:10:07.706Z,100708.06
2023-05-09T01:13:38.147Z,100708.06
2023-05-09T01:16:55.053Z,100704.78
2023-05-09T01:20:13.182Z,100694.31
2023-05-09T01:23:41.398Z,100698.22
2023-05-09T01:26:46.500Z,100687.59
2023-05-09T01:29:51.433Z,100675.94
2023-05-09T01:32:59.511Z,100676.47
2023-05-09T01:36:09.524Z,100683.53
2023-05-09T01:39:13.728Z,100678.69
2023-05-09T01:42:16.471Z,100675.69
2023-05-09T01:45:18.658Z,100677.06
2023-05-09T01:48:21.957Z,100676.94
2023-05-09T01:51:25.671Z,100673.47
2023-05-09T01:54:28.515Z,100680.38
2023-05-09T01:57:30.946Z,100672.31
2023-05-09T02:00:34.792Z,100676.75
2023-05-09T02:03:38.998Z,100671.38
2023-05-09T02:06:41.660Z,100672.47
2023-05-09T02:09:43.189Z,100673.47
2023-05-09T02:12:44.686Z,100668.94
2023-05-09T02:15:47.077Z,100665.97
2023-05-09T02:18:48.607Z,100655.16
2023-05-09T02:21:50.013Z,100659.28
2023-05-09T02:24:51.573Z,100655.00
2023-05-09T02:27:55.510Z,100665.47
2023-05-09T02:30:59.932Z,100663.75
2023-05-09T02:34:04.008Z,100663.75
2023-05-09T02:37:05.456Z,100654.41
2023-05-09T02:40:09.108Z,100658.25
2023-05-09T02:43:10.873Z,100654.97
2023-05-09T02:46:12.593Z,100657.53
2023-05-09T02:49:26.830Z,100654.97
2023-05-09T02:52:33.869Z,100649.47
2023-05-09T02:55:35.418Z,100644.84
2023-05-09T02:58:36.853Z,100642.09
2023-05-09T03:01:38.369Z,100648.28
2023-05-09T03:04:39.972Z,100634.06
2023-05-09T03:07:42.663Z,100634.81
2023-05-09T03:10:44.137Z,100628.66
2023-05-09T03:13:45.605Z,100635.66
2023-05-09T03:16:47.141Z,100634.66
2023-05-09T03:19:56.633Z,100632.78
2023-05-09T03:22:58.021Z,100632.00
2023-05-09T03:25:59.456Z,100629.25
2023-05-09T03:29:01.431Z,100624.94
2023-05-09T03:32:02.894Z,100626.22
2023-05-09T03:35:04.700Z,100621.69
2023-05-09T03:38:07.570Z,100618.09
2023-05-09T03:41:09.738Z,100619.34
2023-05-09T03:44:11.316Z,100616.88
2023-05-09T03:47:12.734Z,100621.31
2023-05-09T03:50:14.948Z,100618.41
2023-05-09T03:53:18.224Z,100618.41
2023-05-09T03:56:22.413Z,100619.34
2023-05-09T03:59:26.435Z,100607.91
2023-05-09T04:02:28.475Z,100608.88
2023-05-09T04:05:30.515Z,100608.41
2023-05-09T04:08:33.351Z,100609.28
2023-05-09T04:11:36.502Z,100608.97
2023-05-09T04:14:42.026Z,100613.41
2023-05-09T04:17:44.047Z,100605.75
2023-05-09T04:20:46.295Z,100606.88
2023-05-09T04:23:48.195Z,100610.75
2023-05-09T04:26:52.045Z,100601.22
2023-05-09T04:29:57.225Z,100608.09
2023-05-09T04:32:58.789Z,100603.56
2023-05-09T04:36:02.933Z,100610.75
2023-05-09T04:39:08.100Z,100619.84
2023-05-09T04:42:10.853Z,100616.47
2023-05-09T04:45:12.448Z,100619.06
2023-05-09T04:48:14.288Z,100613.75
2023-05-09T04:51:15.728Z,100608.16
2023-05-09T04:54:17.089Z,100608.25
2023-05-09T04:57:19.334Z,100598.47
2023-05-09T05:00:26.877Z,100604.81
2023-05-09T05:03:28.279Z,100606.56
2023-05-09T05:06:31.640Z,100604.81
2023-05-09T05:09:33.977Z,100599.66
2023-05-09T05:12:36.121Z,100601.56
2023-05-09T05:15:38.958Z,100595.06
2023-05-09T05:18:41.572Z,100597.59
2023-05-09T05:21:43.871Z,100595.72
2023-05-09T05:24:45.904Z,100591.97
2023-05-09T05:27:48.522Z,100594.53
2023-05-09T05:30:50.698Z,100590.09
2023-05-09T05:33:52.102Z,100594.16
2023-05-09T05:36:54.994Z,100591.56
2023-05-09T05:39:56.618Z,100595.06
2023-05-09T05:42:59.475Z,100581.78
2023-05-09T05:46:02.007Z,100580.66
2023-05-09T05:49:05.976Z,100584.09
2023-05-09T05:52:08.682Z,100591.50
2023-05-09T05:55:11.373Z,100586.09
2023-05-09T05:58:12.914Z,100583.59
2023-05-09T06:01:14.421Z,100587.81
2023-05-09T06:04:16.613Z,100581.53
2023-05-09T06:07:18.101Z,100580.53
2023-05-09T06:10:20.149Z,100574.19
2023-05-09T06:13:21.731Z,100573.50
2023-05-09T06:16:27.878Z,100579.69
2023-05-09T06:19:29.327Z,100564.78
2023-05-09T06:22:30.759Z,100564.50
2023-05-09T06:25:32.345Z,100567.84
2023-05-09T06:28:33.756Z,100569.41
2023-05-09T06:31:38.996Z,100565.97
2023-05-09T06:34:41.972Z,100563.91
2023-05-09T06:37:43.392Z,100557.91
2023-05-09T06:40:44.819Z,100560.63
2023-05-09T06:43:46.569Z,100564.84
2023-05-09T06:46:48.051Z,100557.44
2023-05-09T06:49:49.476Z,100562.25
2023-05-09T06:52:50.874Z,100557.69
2023-05-09T06:55:52.338Z,100545.16
2023-05-09T06:58:53.867Z,100538.88
2023-05-09T07:01:55.855Z,100542.22
2023-05-09T07:04:57.401Z,100539.81
2023-05-09T07:07:58.818Z,100536.56
2023-05-09T07:11:00.358Z,100526.28
2023-05-09T07:14:02.434Z,100534.84
2023-05-09T07:17:21.296Z,100530.69
2023-05-09T07:20:24.586Z,100534.03
2023-05-09T07:23:26.996Z,100525.84
2023-05-09T07:26:28.411Z,100512.25
2023-05-09T07:29:29.855Z,100509.31
2023-05-09T07:32:31.400Z,100508.75
2023-05-09T07:35:32.866Z,100506.56
2023-05-09T07:38:34.249Z,100504.66
2023-05-09T07:41:35.622Z,100504.38
2023-05-09T07:44:37.031Z,100503.06
2023-05-09T07:47:38.452Z,100505.78
2023-05-09T07:50:40.097Z,100491.53
2023-05-09T07:53:41.501Z,100489.72
2023-05-09T07:56:42.982Z,100483.78
2023-05-09T07:59:44.399Z,100478.06
2023-05-09T08:02:45.940Z,100470.28
2023-05-09T08:05:47.464Z,100477.69
2023-05-09T08:08:48.842Z,100467.31
2023-05-09T08:11:50.242Z,100465.38
2023-05-09T08:14:51.734Z,100449.59
2023-05-09T08:17:53.159Z,100444.44
2023-05-09T08:20:54.693Z,100442.09
2023-05-09T08:23:56.802Z,100433.53
2023-05-09T08:26:58.202Z,100441.69
2023-05-09T08:29:59.683Z,100436.84
2023-05-09T08:33:01.116Z,100434.31
2023-05-09T08:36:03.026Z,100438.38
2023-05-09T08:39:04.420Z,100436.13
2023-05-09T08:42:06.028Z,100439.59
2023-05-09T08:45:09.644Z,100427.41
2023-05-09T08:48:11.640Z,100423.47
2023-05-09T08:51:13.736Z,100426.25
2023-05-09T08:54:15.398Z,100421.28
2023-05-09T08:57:16.957Z,100422.03
2023-05-09T09:00:20.817Z,100417.28
2023-05-09T09:03:25.506Z,100416.66
2023-05-09T09:06:28.555Z,100412.31
2023-05-09T09:09:30.223Z,100407.88
2023-05-09T09:12:33.652Z,100398.25
2023-05-09T09:15:36.947Z,100391.66
2023-05-09T09:18:39.963Z,100390.41
2023-05-09T09:21:43.366Z,100381.75
2023-05-09T09:24:45.329Z,100376.25
2023-05-09T09:27:46.750Z,100367.16
2023-05-09T09:30:48.414Z,100358.81
2023-05-09T09:33:50.986Z,100365.53
2023-05-09T09:36:52.415Z,100361.56
2023-05-09T09:39:57.145Z,100363.09
2023-05-09T09:42:58.589Z,100348.31
2023-05-09T09:46:04.344Z,100351.91
2023-05-09T09:49:05.861Z,100344.63
2023-05-09T09:52:07.360Z,100342.47
2023-05-09T09:55:09.310Z,100330.63
2023-05-09T09:58:18.636Z,100332.19
2023-05-09T10:01:20.782Z,100331.94
2023-05-09T10:04:23.096Z,100327.47
2023-05-09T10:07:24.598Z,100314.16
2023-05-09T10:10:27.575Z,100314.53
2023-05-09T10:13:29.334Z,100307.84
2023-05-09T10:16:42.643Z,100302.31
2023-05-09T10:19:47.747Z,100295.25
2023-05-09T10:22:53.028Z,100284.69
2023-05-09T10:26:08.777Z,100288.47
2023-05-09T10:29:12.902Z,100281.16
2023-05-09T10:32:31.634Z,100275.19
2023-05-09T10:35:39.856Z,100267.03
2023-05-09T10:38:42.668Z,100250.97
2023-05-09T10:41:44.349Z,100247.56
2023-05-09T10:44:47.757Z,100243.81
2023-05-09T10:47:52.749Z,100237.84
2023-05-09T10:50:55.142Z,100230.06
2023-05-09T10:53:56.612Z,100221.63
2023-05-09T10:56:58.088Z,100217.09
2023-05-09T11:00:00.386Z,100208.59
2023-05-09T11:03:06.736Z,100203.72
2023-05-09T11:06:08.605Z,100198.59
2023-05-09T11:09:33.416Z,100190.16
2023-05-09T11:12:35.019Z,100188.03
2023-05-09T11:15:36.794Z,100187.84
2023-05-09T11:18:52.694Z,100183.94
2023-05-09T11:22:03.026Z,100173.81
2023-05-09T11:25:09.218Z,100176.63
2023-05-09T11:28:12.127Z,100168.78
2023-05-09T11:31:16.160Z,100162.84
2023-05-09T11:34:19.931Z,100152.00
2023-05-09T11:37:21.720Z,100158.53
2023-05-09T11:40:24.059Z,100155.91
2023-05-09T11:43:25.630Z,100137.19
2023-05-09T11:46:27.268Z,100145.09
2023-05-09T11:49:29.675Z,100137.16
2023-05-09T11:52:33.281Z,100136.38
2023-05-09T11:55:37.955Z,100122.63
2023-05-09T11:58:39.666Z,100131.88
2023-05-09T12:01:41.270Z,100119.44
2023-05-09T12:04:44.033Z,100116.22
2023-05-09T12:07:46.974Z,100116.06
2023-05-09T12:10:48.571Z,100102.00
2023-05-09T12:13:52.300Z,100087.84
2023-05-09T12:16:53.942Z,100081.47
2023-05-09T12:19:55.674Z,100083.13
2023-05-09T12:22:57.066Z,100083.66
2023-05-09T12:25:58.544Z,100078.31
2023-05-09T12:29:00.192Z,100071.75
2023-05-09T12:32:01.786Z,100072.03
2023-05-09T12:35:03.388Z,100064.09
2023-05-09T12:38:04.881Z,100061.69
2023-05-09T12:41:15.442Z,100049.25
2023-05-09T12:44:28.021Z,100047.50
2023-05-09T12:47:31.621Z,100027.19
2023-05-09T12:50:36.766Z,100028.47
2023-05-09T12:53:40.580Z,100034.41
2023-05-09T12:56:42.053Z,100024.22
2023-05-09T12:59:44.177Z,100019.38
2023-05-09T13:02:45.670Z,100019.13
2023-05-09T13:05:56.540Z,100013.66
2023-05-09T13:09:02.444Z,100016.38
2023-05-09T13:12:04.250Z,100003.88
2023-05-09T13:15:07.225Z,99998.34
2023-05-09T13:18:08.858Z,99989.84
2023-05-09T13:21:10.296Z,99987.03
2023-05-09T13:24:11.674Z,99982.00
2023-05-09T13:27:13.308Z,99981.13
2023-05-09T13:30:15.603Z,99973.81
2023-05-09T13:33:25.805Z,99961.56
2023-05-09T13:36:28.269Z,99955.63
2023-05-09T13:39:31.645Z,99949.63
2023-05-09T13:42:34.755Z,99954.25
2023-05-09T13:45:36.284Z,99950.56
2023-05-09T13:48:37.749Z,99949.97
2023-05-09T13:51:39.344Z,99939.56
2023-05-09T13:54:40.835Z,99941.47
2023-05-09T13:57:43.014Z,99939.06
2023-05-09T14:00:44.546Z,99935.84
2023-05-09T14:03:48.948Z,99922.88
2023-05-09T14:06:50.416Z,99926.13
2023-05-09T14:09:58.729Z,99910.59
2023-05-09T14:13:10.710Z,99913.69
2023-05-09T14:16:12.315Z,99912.34
2023-05-09T14:19:17.306Z,99908.06
2023-05-09T14:22:18.707Z,99904.59
2023-05-09T14:25:20.302Z,99899.78
2023-05-09T14:28:21.709Z,99902.38
2023-05-09T14:31:23.101Z,99887.78
2023-05-09T14:34:24.513Z,99889.44
2023-05-09T14:37:25.944Z,99890.13
2023-05-09T14:40:31.766Z,99877.69
2023-05-09T14:43:33.425Z,99869.88
2023-05-09T14:46:35.700Z,99865.81
2023-05-09T14:49:37.662Z,99872.09
2023-05-09T14:52:39.030Z,99861.28
2023-05-09T14:55:40.685Z,99866.88
2023-05-09T14:58:42.158Z,99853.13
2023-05-09T15:01:45.335Z,99851.13
2023-05-09T15:04:46.735Z,99846.53
2023-05-09T15:07:48.151Z,99842.78
2023-05-09T15:10:50.734Z,99840.97
2023-05-09T15:13:53.363Z,99834.59
2023-05-09T15:16:57.181Z,99827.25
2023-05-09T15:19:58.918Z,99831.63
2023-05-09T15:23:00.532Z,99820.47
2023-05-09T15:26:02.216Z,99818.63
2023-05-09T15:29:03.654Z,99818.50
2023-05-09T15:32:05.336Z,99809.75
2023-05-09T15:35:07.244Z,99806.56
2023-05-09T15:38:11.955Z,99811.81
2023-05-09T15:41:13.336Z,99808.81
2023-05-09T15:44:14.856Z,99799.38
2023-05-09T15:47:16.533Z,99801.09
2023-05-09T15:50:18.156Z,99799.59
2023-05-09T15:53:51.234Z,99801.03
2023-05-09T15:56:52.771Z,99793.44
2023-05-09T15:59:57.105Z,99794.03
2023-05-09T16:02:58.709Z,99789.75
2023-05-09T16:06:00.604Z,99791.50
2023-05-09T16:09:03.707Z,99791.22
2023-05-09T16:12:05.444Z,99781.19
2023-05-09T16:15:08.214Z,99787.31
2023-05-09T16:18:09.824Z,99781.56
2023-05-09T16:21:12.196Z,99773.16
2023-05-09T16:24:13.809Z,99771.84
2023-05-09T16:27:15.476Z,99767.38
2023-05-09T16:30:17.286Z,99761.78
2023-05-09T16:33:19.516Z,99768.00
2023-05-09T16:36:21.918Z,99762.03
2023-05-09T16:39:23.766Z,99761.78
2023-05-09T16:42:25.749Z,99762.03
2023-05-09T16:45:27.489Z,99753.47
2023-05-09T16:48:28.938Z,99750.88
2023-05-09T16:51:30.549Z,99759.75
2023-05-09T16:54:32.075Z,99751.72
2023-05-09T16:57:33.557Z,99747.59
2023-05-09T17:00:35.238Z,99754.47
2023-05-09T17:03:36.671Z,99744.56
2023-05-09T17:06:38.113Z,99751.63
2023-05-09T17:09:40.184Z,99755.91
2023-05-09T17:12:41.884Z,99750.53
2023-05-09T17:15:44.264Z,99756.66
2023-05-09T17:18:47.289Z,99753.00
2023-05-09T17:21:49.080Z,99750.34
2023-05-09T17:24:50.520Z,99759.41
2023-05-09T17:27:53.597Z,99755.34
2023-05-09T17:30:55.234Z,99761.50
2023-05-09T17:33:56.772Z,99758.31
2023-05-09T17:36:58.855Z,99767.84
2023-05-09T17:40:00.308Z,99767.84
2023-05-09T17:43:01.707Z,99780.84
2023-05-09T17:46:03.930Z,99785.09
2023-05-09T17:49:08.051Z,99783.75
2023-05-09T17:52:09.439Z,99793.03
2023-05-09T17:55:11.437Z,99795.72
2023-05-09T17:58:14.678Z,99798.88
2023-05-09T18:01:16.109Z,99808.69
2023-05-09T18:04:17.513Z,99813.16
2023-05-09T18:07:19.504Z,99821.34
2023-05-09T18:10:20.941Z,99807.69
2023-05-09T18:13:23.122Z,99810.91
2023-05-09T18:16:24.674Z,99820.06
2023-05-09T18:19:26.600Z,99822.78
2023-05-09T18:22:28.015Z,99824.53
2023-05-09T18:25:29.406Z,99822.38
2023-05-09T18:28:31.827Z,99818.66
2023-05-09T18:31:38.506Z,99823.94
2023-05-09T18:34:40.590Z,99822.00
2023-05-09T18:37:42.010Z,99819.13
2023-05-09T18:40:43.511Z,99823.50
2023-05-09T18:43:47.708Z,99817.44
2023-05-09T18:46:49.175Z,99817.97
2023-05-09T18:49:50.562Z,99816.03
2023-05-09T18:52:51.939Z,99806.31
2023-05-09T18:55:53.331Z,99812.50
2023-05-09T18:58:55.003Z,99807.22
2023-05-09T19:01:56.414Z,99819.59
2023-05-09T19:05:01.596Z,99809.66
2023-05-09T19:08:03.584Z,99811.38
2023-05-09T19:11:04.989Z,99807.22
2023-05-09T19:14:06.503Z,99809.56
2023-05-09T19:17:08.249Z,99807.22
2023-05-09T19:20:10.543Z,99808.31
2023-05-09T19:23:12.053Z,99810.00
2023-05-09T19:26:15.370Z,99815.09
2023-05-09T19:29:16.756Z,99804.88
2023-05-09T19:32:18.705Z,99810.84
2023-05-09T19:35:20.465Z,99810.22
2023-05-09T19:38:21.978Z,99810.00
2023-05-09T19:41:23.545Z,99815.53
2023-05-09T19:44:24.933Z,99813.63
2023-05-09T19:47:27.213Z,99816.81
2023-05-09T19:50:28.653Z,99820.66
2023-05-09T19:53:30.069Z,99822.47
2023-05-09T19:56:31.524Z,99819.78
2023-05-09T19:59:32.987Z,99821.59
2023-05-09T20:02:34.874Z,99814.47
2023-05-09T20:05:36.354Z,99810.84
2023-05-09T20:08:37.951Z,99816.38
2023-05-09T20:11:39.377Z,99815.41
2023-05-09T20:14:40.790Z,99825.53
2023-05-09T20:17:42.309Z,99823.41
2023-05-09T20:20:43.759Z,99821.50
2023-05-09T20:23:45.931Z,99817.44
2023-05-09T20:26:47.426Z,99820.22
2023-05-09T20:29:48.964Z,99816.69
2023-05-09T20:32:50.711Z,99808.47
2023-05-09T20:35:52.174Z,99815.66
2023-05-09T20:38:53.700Z,99813.72
2023-05-09T20:41:55.820Z,99820.22
2023-05-09T20:44:57.486Z,99820.84
2023-05-09T20:47:59.277Z,99811.56
2023-05-09T20:51:00.790Z,99819.75
2023-05-09T20:54:02.334Z,99819.50
2023-05-09T20:57:03.857Z,99823.09
2023-05-09T21:00:07.478Z,99822.47
2023-05-09T21:03:10.054Z,99820.31
2023-05-09T21:06:11.664Z,99821.38
2023-05-09T21:09:13.264Z,99810.06
2023-05-09T21:12:14.756Z,99815.28
2023-05-09T21:15:16.198Z,99813.81
2023-05-09T21:18:19.198Z,99809.44
2023-05-09T21:21:20.625Z,99809.63
2023-05-09T21:24:21.994Z,99809.84
2023-05-09T21:27:23.398Z,99813.44
2023-05-09T21:30:24.791Z,99802.16
2023-05-09T21:33:26.197Z,99800.16
2023-05-09T21:36:28.046Z,99799.38
2023-05-09T21:39:29.434Z,99797.91
2023-05-09T21:42:30.838Z,99794.28
2023-05-09T21:45:32.296Z,99801.50
2023-05-09T21:48:33.916Z,99792.78
2023-05-09T21:51:35.439Z,99795.31
2023-05-09T21:54:36.916Z,99798.28
2023-05-09T21:57:38.327Z,99787.88
2023-05-09T22:00:39.727Z,99795.84
2023-05-09T22:03:41.277Z,99787.13
2023-05-09T22:06:42.833Z,99799.09
2023-05-09T22:09:44.221Z,99795.88
2023-05-09T22:12:45.864Z,99798.00
2023-05-09T22:15:47.395Z,99805.41
2023-05-09T22:18:48.872Z,99806.03
2023-05-09T22:21:50.316Z,99813.41
2023-05-09T22:24:51.733Z,99816.06
2023-05-09T22:27:54.571Z,99815.31
2023-05-09T22:30:55.944Z,99807.66
2023-05-09T22:33:57.332Z,99812.13
2023-05-09T22:36:58.745Z,99814.00
2023-05-09T22:40:03.055Z,99820.47
2023-05-09T22:43:04.549Z,99817.03
2023-05-09T22:46:06.052Z,99819.53
2023-05-09T22:49:07.594Z,99825.78
2023-05-09T22:52:09.792Z,99827.28
2023-05-09T22:55:11.355Z,99824.72
2023-05-09T22:58:12.829Z,99839.59
2023-05-09T23:01:14.254Z,99838.72
2023-05-09T23:04:16.807Z,99831.81
2023-05-09T23:07:18.200Z,99846.63
2023-05-09T23:10:19.689Z,99843.59
2023-05-09T23:13:21.166Z,99846.50
2023-05-09T23:16:22.707Z,99849.28
2023-05-09T23:19:24.246Z,99845.88
2023-05-09T23:22:25.618Z,99852.78
2023-05-09T23:25:26.998Z,99852.63
2023-05-09T23:28:28.377Z,99849.84
2023-05-09T23:31:29.847Z,99854.22
2023-05-09T23:34:31.298Z,99852.31
2023-05-09T23:37:32.673Z,99857.72
2023-05-09T23:40:34.141Z,99857.91
2023-05-09T23:43:35.524Z,99848.34
2023-05-09T23:46:36.984Z,99850.91
2023-05-09T23:49:38.388Z,99851.06
2023-05-09T23:52:41.720Z,99857.22
2023-05-09T23:55:43.166Z,99851.94
2023-05-09T23:58:44.559Z,99857.44
